Time;durP1;ratioP1;P1;durP2;ratioP2;P2;SDS_P1;SDS_P2;PMS_P1;PMS_P2;Temp;Humidity;BMP_temperature;BMP_pressure;BME280_temperature;BME280_humidity;BME280_pressure;Samples;Min_cycle;Max_cycle;Signal;HPM_P1;HPM_P2
2022/05/09 00:00:58;;;;;;;9.65;7.10;;;;;;;13.97;66.51;97419.69;6304870;22;20049;-80
2022/05/09 00:03:35;;;;;;;7.38;6.30;;;;;;;13.97;69.55;97424.94;6304981;22;20004;-79
2022/05/09 00:06:12;;;;;;;9.07;7.45;;;;;;;13.95;66.89;97417.25;6304712;22;20000;-80
2022/05/09 00:08:57;;;;;;;7.32;6.60;;;;;;;13.91;67.20;97423.88;6304223;22;20011;-80
2022/05/09 00:11:36;;;;;;;10.10;8.00;;;;;;;13.86;65.99;97425.41;6254389;22;20023;-79
2022/05/09 00:17:00;;;;;;;7.47;6.75;;;;;;;13.70;65.86;97419.34;6301931;22;20075;-80
2022/05/09 00:19:37;;;;;;;9.40;7.75;;;;;;;13.62;65.88;97423.88;6304970;22;20008;-80
2022/05/09 00:22:21;;;;;;;7.78;7.03;;;;;;;13.57;67.11;97421.78;6304008;22;20000;-80
2022/05/09 00:25:03;;;;;;;7.88;7.07;;;;;;;13.52;66.36;97427.56;6278940;22;20020;-78
2022/05/09 01:05:50;;;;;;;7.20;6.47;;;;;;;13.17;69.77;97418.56;6275207;22;20038;-81
2022/05/09 01:08:56;;;;;;;8.23;7.45;;;;;;;13.14;67.46;97414.50;6275308;22;20031;-79
2022/05/09 01:11:37;;;;;;;8.57;7.00;;;;;;;13.12;67.99;97413.06;6275638;22;20016;-78
2022/05/09 01:14:19;;;;;;;7.07;6.47;;;;;;;13.15;70.17;97410.06;6250794;22;20024;-79
2022/05/09 01:20:21;;;;;;;7.88;7.07;;;;;;;13.03;67.05;97412.31;6275977;22;20004;-79
2022/05/09 01:23:07;;;;;;;7.77;6.97;;;;;;;13.01;67.83;97416.06;6275775;22;20056;-79
2022/05/09 02:58:17;;;;;;;9.10;8.00;;;;;;;12.13;68.98;97415.53;6269972;22;20276;-79
2022/05/09 03:12:18;;;;;;;9.43;8.50;;;;;;;12.08;70.09;97412.63;6293371;22;20023;-79
2022/05/09 03:18:24;;;;;;;9.43;8.48;;;;;;;12.05;69.83;97418.19;6265187;22;20054;-79
2022/05/09 03:21:23;;;;;;;9.80;8.77;;;;;;;12.02;69.75;97411.47;6251704;23;20042;-80
2022/05/09 03:24:00;;;;;;;10.13;8.13;;;;;;;12.00;69.00;97410.03;6274265;23;20046;-79
2022/05/09 03:29:52;;;;;;;10.20;8.50;;;;;;;11.91;69.58;97412.66;6273012;22;20027;-78
2022/05/09 04:25:53;;;;;;;10.75;9.65;;;;;;;11.69;70.34;97434.28;6295304;22;19996;-78
2022/05/09 05:48:43;;;;;;;13.68;10.18;;;;;;;12.67;74.57;97469.69;6302508;22;20249;-80
2022/05/09 05:51:29;;;;;;;11.75;9.50;;;;;;;12.72;75.48;97470.78;6306201;22;20008;-81
2022/05/09 07:10:42;;;;;;;9.13;8.23;;;;;;;14.89;70.13;97486.56;6252145;22;20023;-81
2022/05/09 07:13:49;;;;;;;8.93;7.72;;;;;;;14.96;69.30;97485.63;6302033;22;20016;-79
2022/05/09 07:39:25;;;;;;;9.02;6.55;;;;;;;16.19;63.03;97493.22;6270094;22;20004;-79
2022/05/09 07:42:25;;;;;;;8.07;6.35;;;;;;;16.36;62.91;97496.34;6251993;22;20023;-80
2022/05/09 07:44:58;;;;;;;12.33;5.63;;;;;;;16.49;62.48;97493.75;6300834;22;20030;-79
2022/05/09 07:47:31;;;;;;;6.88;5.40;;;;;;;16.60;62.57;97490.53;6303664;22;20024;-78
2022/05/09 07:50:14;;;;;;;6.10;5.47;;;;;;;16.69;62.10;97493.81;6303278;22;20000;-79
2022/05/09 07:52:54;;;;;;;12.40;5.97;;;;;;;16.82;61.87;97483.34;6303283;22;20055;-80
2022/05/09 07:55:25;;;;;;;10.05;6.07;;;;;;;16.93;61.61;97489.03;6303317;22;20004;-80
2022/05/09 07:57:58;;;;;;;6.50;5.90;;;;;;;17.03;60.89;97485.00;6300679;22;20026;-78
2022/05/09 08:00:37;;;;;;;7.43;5.72;;;;;;;17.14;60.51;97490.66;6298473;22;20010;-79
2022/05/09 08:03:16;;;;;;;6.50;5.40;;;;;;;17.23;60.57;97487.66;6302197;22;20027;-78
2022/05/09 08:05:53;;;;;;;8.32;6.40;;;;;;;17.33;60.41;97489.06;6302185;22;20054;-79
2022/05/09 08:08:25;;;;;;;6.47;5.75;;;;;;;17.42;60.80;97488.66;6302730;22;20030;-77
2022/05/09 08:10:59;;;;;;;10.05;5.93;;;;;;;17.53;60.25;97486.41;6304099;22;20063;-78
2022/05/09 08:16:20;;;;;;;6.30;5.70;;;;;;;17.75;58.87;97481.72;6300898;22;20023;-80
2022/05/09 08:30:39;;;;;;;6.43;5.75;;;;;;;18.33;56.46;97489.72;6275160;22;20000;-82
2022/05/09 08:39:39;;;;;;;7.00;6.35;;;;;;;18.70;55.56;97477.56;6274107;22;20024;-80
2022/05/09 08:42:23;;;;;;;7.55;5.72;;;;;;;18.80;54.34;97479.75;6304047;22;20016;-79
2022/05/09 08:45:17;;;;;;;7.10;5.75;;;;;;;18.92;52.99;97483.34;6303586;22;20012;-79
2022/05/09 08:48:34;;;;;;;6.60;6.00;;;;;;;19.04;53.09;97485.31;6302938;22;20023;-78
2022/05/09 09:10:48;;;;;;;5.70;5.20;;;;;;;19.81;49.89;97495.69;6265004;22;20034;-80
2022/05/09 09:13:51;;;;;;;8.27;5.18;;;;;;;19.92;50.56;97492.34;6271849;22;20004;-80
2022/05/09 09:17:17;;;;;;;7.05;5.80;;;;;;;20.03;49.52;97496.09;6273685;22;20031;-79
2022/05/09 09:20:51;;;;;;;5.07;4.65;;;;;;;20.11;48.58;97504.53;6249518;22;20012;-79
2022/05/09 09:23:57;;;;;;;10.55;5.35;;;;;;;20.16;46.82;97499.41;6273589;22;20019;-79
2022/05/09 09:27:00;;;;;;;13.40;5.88;;;;;;;20.23;47.57;97503.84;6273722;22;20041;-79
2022/05/09 09:29:39;;;;;;;20.20;6.10;;;;;;;20.28;46.74;97501.31;6249402;22;20024;-79
2022/05/09 09:32:27;;;;;;;9.10;5.47;;;;;;;20.33;46.57;97498.81;6275317;23;20024;-80
2022/05/09 09:35:31;;;;;;;5.18;4.70;;;;;;;20.38;46.91;97493.66;6274975;23;20440;-78
2022/05/09 09:38:36;;;;;;;7.47;5.68;;;;;;;20.48;46.27;97506.38;6275168;22;20020;-78
2022/05/09 09:41:23;;;;;;;6.85;5.32;;;;;;;20.53;45.24;97499.38;6274737;22;20024;-79
2022/05/09 09:44:07;;;;;;;7.70;5.15;;;;;;;20.56;45.63;97503.44;6274773;22;20067;-79
2022/05/09 09:55:31;;;;;;;5.63;5.13;;;;;;;20.73;44.97;97487.75;6299418;22;20003;-79
2022/05/09 09:58:27;;;;;;;4.95;4.38;;;;;;;20.83;45.67;97489.84;6305371;22;20030;-79
2022/05/09 10:01:36;;;;;;;6.32;4.45;;;;;;;20.94;46.21;97484.56;6305151;22;20007;-79
2022/05/09 10:04:32;;;;;;;5.45;4.30;;;;;;;21.04;46.64;97481.38;6288431;22;20020;-79
2022/05/09 10:07:05;;;;;;;10.95;4.72;;;;;;;21.13;46.04;97481.88;6296305;22;20020;-78
2022/05/09 10:09:40;;;;;;;6.43;4.80;;;;;;;21.17;46.91;97483.03;6304551;22;20030;-78
2022/05/09 10:12:25;;;;;;;5.60;4.60;;;;;;;21.21;45.51;97484.19;6298971;22;20000;-80
2022/05/09 10:15:23;;;;;;;11.65;4.65;;;;;;;21.26;45.91;97486.16;6300149;22;20072;-80
2022/05/09 10:17:56;;;;;;;5.43;4.90;;;;;;;21.30;45.83;97490.78;6300539;22;20030;-79
2022/05/09 10:20:36;;;;;;;5.35;4.72;;;;;;;21.32;46.11;97479.94;6293982;22;20011;-80
2022/05/09 10:26:06;;;;;;;17.60;5.00;;;;;;;21.42;45.53;97485.50;6284151;22;20050;-80
2022/05/09 10:28:45;;;;;;;7.47;4.68;;;;;;;21.46;45.04;97480.56;6287878;22;20004;-79
2022/05/09 10:31:22;;;;;;;9.68;4.65;;;;;;;21.50;43.83;97476.41;6303209;22;20023;-78
2022/05/09 10:34:04;;;;;;;6.18;4.50;;;;;;;21.54;43.66;97469.59;6301572;22;20000;-80
2022/05/09 10:36:42;;;;;;;8.05;4.97;;;;;;;21.55;44.31;97472.00;6302734;22;20028;-80
2022/05/09 10:39:34;;;;;;;5.38;4.78;;;;;;;21.56;44.81;97478.97;6301302;22;20008;-79
2022/05/09 10:51:33;;;;;;;7.95;4.40;;;;;;;21.64;43.81;97456.53;6277613;22;20007;-79
2022/05/09 10:54:36;;;;;;;5.57;4.38;;;;;;;21.63;43.44;97465.56;6282102;22;20011;-79
2022/05/09 11:00:06;;;;;;;7.30;4.40;;;;;;;21.68;43.11;97449.75;6199988;23;20100;-77
2022/05/09 11:02:42;;;;;;;5.20;4.35;;;;;;;21.70;43.31;97455.63;6207281;23;20036;-78
2022/05/09 11:05:14;;;;;;;7.53;4.15;;;;;;;21.72;42.14;97447.44;6214517;23;20017;-78
2022/05/09 11:07:49;;;;;;;3.97;3.67;;;;;;;;;;6222193;23;20036;-77
2022/05/09 11:10:39;;;;;;;6.28;3.53;;;;;;;21.79;42.12;97446.25;6236954;23;20016;-78
2022/05/09 11:13:30;;;;;;;6.90;3.63;;;;;;;21.89;42.94;97450.19;6218659;22;21024;-78
2022/05/09 11:19:08;;;;;;;4.35;3.95;;;;;;;22.00;42.18;97438.75;6247449;22;20053;-80
2022/05/09 11:21:49;;;;;;;9.05;3.95;;;;;;;22.01;42.70;97443.00;6266771;22;20043;-79
2022/05/09 11:24:40;;;;;;;8.05;4.07;;;;;;;22.04;41.80;97442.53;6261190;23;20047;-78
2022/05/09 11:27:23;;;;;;;7.32;4.90;;;;;;;22.03;41.58;97435.59;6247434;23;20087;-78
2022/05/09 11:30:24;;;;;;;4.90;4.32;;;;;;;22.03;42.80;97435.59;6247921;23;20020;-78
2022/05/09 11:33:00;;;;;;;5.20;4.38;;;;;;;22.06;42.79;97431.66;6249651;23;20547;-78
2022/05/09 11:35:33;;;;;;;4.53;4.13;;;;;;;22.09;42.28;97431.22;6250764;23;20020;-78
2022/05/09 11:38:24;;;;;;;7.90;4.07;;;;;;;22.11;41.80;97424.63;6252814;23;20020;-78
2022/05/09 11:41:01;;;;;;;4.80;3.90;;;;;;;22.15;41.38;97433.75;6254664;23;20023;-78
2022/05/09 11:43:46;;;;;;;4.60;4.20;;;;;;;22.18;41.79;97427.13;6252508;23;20020;-79
2022/05/09 11:46:38;;;;;;;6.50;3.72;;;;;;;22.24;41.85;97425.41;6246830;23;20019;-78
2022/05/09 11:49:25;;;;;;;4.10;3.70;;;;;;;22.31;41.33;97423.44;6248628;23;20023;-78
2022/05/09 11:51:56;;;;;;;5.10;4.00;;;;;;;22.35;42.06;97424.56;6247119;23;20095;-78
2022/05/09 11:54:29;;;;;;;4.95;4.55;;;;;;;22.35;42.06;97424.56;6250510;23;20141;-78
2022/05/09 11:57:07;;;;;;;6.25;4.15;;;;;;;22.32;41.59;97433.00;6248259;23;20022;-78
2022/05/09 11:59:37;;;;;;;4.78;3.85;;;;;;;22.30;40.43;97421.81;6247544;23;20024;-78
2022/05/09 12:02:09;;;;;;;6.22;4.05;;;;;;;22.27;40.31;97427.59;6251916;23;20039;-78
2022/05/09 12:04:45;;;;;;;6.20;4.03;;;;;;;22.25;40.00;97429.69;6256939;23;20020;-78
2022/05/09 12:07:45;;;;;;;7.80;3.83;;;;;;;22.22;39.35;97425.66;6256267;23;20027;-78
2022/05/09 12:10:20;;;;;;;4.07;3.78;;;;;;;22.18;39.19;97421.81;6249273;23;20024;-78
2022/05/09 12:12:54;;;;;;;4.80;4.28;;;;;;;22.13;39.05;97411.09;6249603;23;20421;-78
2022/05/09 12:15:48;;;;;;;5.03;3.70;;;;;;;22.03;39.09;97406.38;6254747;23;20074;-78
2022/05/09 12:18:20;;;;;;;4.78;3.88;;;;;;;21.95;39.39;97409.41;6261541;23;20024;-78
2022/05/09 12:21:11;;;;;;;6.93;3.90;;;;;;;21.88;39.29;97408.72;6251569;23;20441;-78
2022/05/09 12:24:13;;;;;;;4.25;3.85;;;;;;;21.86;39.32;97411.59;6254892;23;20091;-78
2022/05/09 12:26:43;;;;;;;4.72;3.97;;;;;;;21.86;39.99;97405.50;6247786;23;20095;-78
2022/05/09 12:29:50;;;;;;;6.13;4.15;;;;;;;21.87;39.89;97401.81;6256151;23;20537;-78
2022/05/09 12:32:20;;;;;;;4.90;3.90;;;;;;;21.84;39.06;97402.25;6264394;23;20020;-78
2022/05/09 12:34:49;;;;;;;5.25;4.00;;;;;;;21.78;39.55;97398.72;6257423;23;20027;-78
2022/05/09 12:37:45;;;;;;;7.63;4.25;;;;;;;21.76;39.50;97393.63;6253537;23;20023;-78
2022/05/09 12:40:21;;;;;;;4.10;3.80;;;;;;;21.75;38.97;97394.66;6257793;23;20020;-78
2022/05/09 12:42:55;;;;;;;6.68;4.00;;;;;;;21.75;38.92;97394.66;6254726;23;20115;-78
2022/05/09 12:45:24;;;;;;;5.78;3.47;;;;;;;21.77;39.05;97392.56;6256367;23;20056;-78
2022/05/09 12:47:53;;;;;;;5.38;3.88;;;;;;;21.81;39.17;97388.41;6247230;23;20020;-78
2022/05/09 12:50:27;;;;;;;9.45;4.28;;;;;;;21.85;38.56;97393.28;6248104;23;20103;-78
2022/05/09 12:52:57;;;;;;;5.07;3.75;;;;;;;21.85;39.06;97382.66;6259013;23;20047;-78
2022/05/09 12:58:24;;;;;;;5.78;3.75;;;;;;;21.92;38.87;97364.72;6250935;23;20099;-78
2022/05/09 13:00:57;;;;;;;6.05;3.88;;;;;;;21.94;38.95;97374.06;6251709;23;20035;-79
2022/05/09 13:03:50;;;;;;;4.53;3.90;;;;;;;21.98;38.76;97371.75;6249280;23;20024;-78
2022/05/09 13:06:21;;;;;;;4.88;4.43;;;;;;;21.95;38.58;97372.22;6248874;23;20031;-78
2022/05/09 13:08:49;;;;;;;4.18;3.78;;;;;;;21.92;38.47;97370.03;6249269;23;20021;-77
2022/05/09 13:11:20;;;;;;;9.27;4.13;;;;;;;21.89;39.32;97367.84;6246862;23;20029;-78
2022/05/09 13:13:59;;;;;;;4.65;3.63;;;;;;;21.90;38.48;97364.16;6247489;23;20035;-78
2022/05/09 13:16:33;;;;;;;5.50;3.67;;;;;;;21.89;38.74;97367.84;6248143;23;20055;-78
2022/05/09 13:19:03;;;;;;;4.40;4.00;;;;;;;21.87;39.77;97360.13;6247748;23;20020;-78
2022/05/09 13:21:35;;;;;;;5.28;4.00;;;;;;;21.89;40.15;97362.53;6247720;23;20020;-78
2022/05/09 13:24:08;;;;;;;6.10;4.38;;;;;;;21.89;39.95;97362.53;6247026;23;20026;-78
2022/05/09 13:26:45;;;;;;;5.65;4.00;;;;;;;21.89;40.43;97359.91;6246601;23;20023;-77
2022/05/09 13:29:23;;;;;;;4.00;3.60;;;;;;;21.88;40.23;97358.25;6249094;23;20020;-78
2022/05/09 13:31:54;;;;;;;6.47;4.05;;;;;;;21.86;40.28;97361.16;6247922;23;20070;-78
2022/05/09 13:34:29;;;;;;;5.47;3.47;;;;;;;21.80;39.98;97357.59;6248157;23;20027;-77
2022/05/09 13:36:57;;;;;;;4.70;3.95;;;;;;;21.78;40.14;97357.03;6247258;23;20016;-78
2022/05/09 13:39:28;;;;;;;4.97;4.07;;;;;;;21.75;39.95;97356.66;6247509;23;20428;-77
2022/05/09 13:41:58;;;;;;;4.45;3.78;;;;;;;21.73;40.07;97337.50;6251119;23;20016;-78
2022/05/09 13:44:26;;;;;;;4.57;3.55;;;;;;;21.73;40.48;97337.50;6249077;23;20360;-78
2022/05/09 13:46:57;;;;;;;8.38;3.95;;;;;;;21.72;40.38;97346.53;6247641;23;20638;-78
2022/05/09 13:49:29;;;;;;;4.40;4.00;;;;;;;21.71;39.56;97334.28;6267134;23;20035;-78
2022/05/09 13:52:10;;;;;;;4.30;3.88;;;;;;;21.69;39.48;97339.00;6271828;22;20009;-78
2022/05/09 13:54:54;;;;;;;5.60;3.80;;;;;;;21.65;39.74;97341.34;6276168;22;20024;-79
2022/05/09 14:10:50;;;;;;;7.43;4.07;;;;;;;21.68;40.09;97316.97;6350389;22;20002;-78
2022/05/09 15:11:17;;;;;;;5.55;3.58;;;;;;;22.07;39.86;97274.69;6318018;22;20037;-80
2022/05/09 15:13:54;;;;;;;4.50;4.10;;;;;;;22.07;39.62;97272.03;6335797;22;20015;-80
2022/05/09 15:16:45;;;;;;;5.18;3.50;;;;;;;22.06;38.88;97275.72;6329420;22;20019;-79
2022/05/09 15:19:25;;;;;;;3.47;3.25;;;;;;;22.05;39.18;97271.47;6303044;22;20008;-79
2022/05/09 15:22:19;;;;;;;;;;;;;;;22.07;39.52;97272.03;6306443;22;20056;-80
2022/05/09 15:24:52;;;;;;;4.35;3.75;;;;;;;22.04;39.22;97258.41;6304716;22;19899;-80
2022/05/09 15:30:49;;;;;;;7.15;3.88;;;;;;;22.04;39.16;97248.59;6281446;22;20062;-80
2022/05/09 15:58:09;;;;;;;5.25;3.47;;;;;;;22.11;38.69;97240.50;6323267;22;20046;-79
2022/05/09 16:00:56;;;;;;;5.95;3.85;;;;;;;22.09;38.41;97243.38;6261217;22;20015;-78
2022/05/09 16:19:57;;;;;;;4.38;3.97;;;;;;;22.07;39.02;97242.00;6281776;22;20018;-80
2022/05/09 16:22:32;;;;;;;8.73;3.78;;;;;;;22.05;38.51;97234.25;6298926;22;20037;-77
2022/05/09 16:25:00;;;;;;;3.90;3.47;;;;;;;22.05;38.82;97236.13;6307354;22;20019;-76
2022/05/09 16:27:30;;;;;;;7.72;4.18;;;;;;;22.04;38.44;97235.31;6310753;22;20098;-77
2022/05/09 16:30:01;;;;;;;3.78;3.47;;;;;;;22.03;38.22;97228.38;6291369;22;20063;-78
2022/05/09 16:32:36;;;;;;;3.88;3.58;;;;;;;22.03;38.33;97231.03;6301077;22;20059;-78
2022/05/09 16:35:06;;;;;;;5.88;4.03;;;;;;;22.03;37.67;97233.69;6286842;22;20066;-77
2022/05/09 16:37:34;;;;;;;3.85;3.55;;;;;;;22.02;37.90;97229.44;6288557;22;20019;-78
2022/05/09 16:40:01;;;;;;;4.95;4.28;;;;;;;22.02;37.80;97226.78;6283277;22;20026;-78
2022/05/09 16:42:32;;;;;;;4.43;3.30;;;;;;;22.03;37.86;97228.38;6275912;22;20058;-78
2022/05/09 16:45:03;;;;;;;5.68;3.63;;;;;;;22.03;38.29;97228.38;6275541;22;20016;-78
2022/05/09 16:47:33;;;;;;;3.97;3.63;;;;;;;22.03;38.34;97220.41;6276345;22;20016;-77
2022/05/09 16:50:01;;;;;;;5.07;3.30;;;;;;;22.03;38.77;97220.41;6286642;22;20471;-77
2022/05/09 16:52:31;;;;;;;7.57;4.65;;;;;;;22.05;38.84;97230.81;6275912;22;20023;-77
2022/05/09 16:54:58;;;;;;;4.65;3.92;;;;;;;22.06;38.52;97235.06;6275402;22;20047;-77
2022/05/09 16:57:26;;;;;;;7.72;4.10;;;;;;;22.06;38.51;97232.41;6274434;22;20090;-77
2022/05/09 17:29:31;;;;;;;5.53;4.15;;;;;;;22.03;38.97;97236.34;6268061;22;20242;-80
2022/05/09 18:06:54;;;;;;;6.80;4.18;;;;;;;21.77;42.52;97261.66;6273442;22;20064;-80
2022/05/09 18:12:21;;;;;;;7.82;4.80;;;;;;;21.67;43.43;97258.78;6273279;22;20000;-79
2022/05/09 18:15:20;;;;;;;6.07;4.43;;;;;;;21.61;43.95;97263.22;6273461;22;20004;-79
2022/05/09 18:58:57;;;;;;;4.45;4.05;;;;;;;19.71;48.53;97293.19;6260654;22;20020;-78
2022/05/09 23:01:49;;;;;;;8.95;8.02;;;;;;;15.48;59.81;97298.78;6262949;23;20027;-80
2022/05/09 23:04:21;;;;;;;9.13;8.23;;;;;;;15.43;60.00;97299.38;6266194;23;20023;-81
2022/05/09 23:06:49;;;;;;;8.77;7.88;;;;;;;15.40;59.79;97299.75;6265065;23;20027;-81
2022/05/09 23:09:18;;;;;;;9.60;8.70;;;;;;;15.37;59.93;97294.88;6262667;23;20076;-81
2022/05/09 23:11:48;;;;;;;9.52;8.57;;;;;;;15.36;60.14;97293.28;6265682;23;20023;-80
2022/05/09 23:14:17;;;;;;;13.25;8.57;;;;;;;15.34;60.19;97290.03;6264564;23;20028;-79
2022/05/09 23:16:45;;;;;;;9.38;8.50;;;;;;;15.31;60.27;97285.97;6264490;23;20047;-78
2022/05/09 23:19:14;;;;;;;9.50;8.55;;;;;;;15.32;60.49;97286.78;6266918;23;20024;-79
2022/05/09 23:21:42;;;;;;;10.93;8.75;;;;;;;15.25;60.43;97290.19;6267174;23;20068;-79
2022/05/09 23:24:10;;;;;;;11.88;8.80;;;;;;;15.19;60.85;97285.69;6265092;23;20068;-79
2022/05/09 23:26:38;;;;;;;13.15;8.98;;;;;;;15.14;60.83;97287.28;6265261;23;20032;-79
2022/05/09 23:29:18;;;;;;;9.70;8.70;;;;;;;15.08;61.25;97286.25;6264516;23;20032;-78
2022/05/09 23:31:45;;;;;;;9.63;8.63;;;;;;;15.03;61.19;97286.00;6264709;23;20048;-79
2022/05/09 23:34:17;;;;;;;10.40;9.00;;;;;;;14.99;61.65;97284.78;6264394;23;20016;-79
2022/05/09 23:36:45;;;;;;;9.60;8.70;;;;;;;14.94;61.50;97279.28;6261002;23;20040;-78
2022/05/09 23:39:14;;;;;;;9.30;8.30;;;;;;;14.91;61.52;97279.66;6256931;23;20026;-78
2022/05/09 23:41:42;;;;;;;10.57;9.57;;;;;;;14.88;61.46;97285.31;6258464;23;20360;-79
2022/05/09 23:44:10;;;;;;;10.13;9.20;;;;;;;14.81;61.91;97287.91;6261178;23;20016;-78
2022/05/09 23:46:42;;;;;;;11.82;9.00;;;;;;;14.79;62.38;97287.28;6259596;23;20352;-79
2022/05/09 23:49:25;;;;;;;11.13;9.88;;;;;;;14.77;62.27;97282.19;6259993;23;20016;-79
2022/05/09 23:51:53;;;;;;;11.30;10.23;;;;;;;14.76;62.08;97283.22;6259323;23;20040;-78
2022/05/09 23:54:21;;;;;;;10.38;9.38;;;;;;;14.76;62.20;97285.84;6259841;23;20076;-79
2022/05/09 23:56:49;;;;;;;10.75;9.75;;;;;;;14.75;62.16;97288.66;6259587;23;20044;-78
2022/05/09 23:59:17;;;;;;;10.27;9.15;;;;;;;14.70;62.44;97283.97;6260010;23;20067;-79
